Latest Coastal Weather Observations for Cairns

IDQ60701

Issued at 6:22 am EST Monday 25 July 2016 (issued every 10 minutes, with the page automatically refreshed every 10 minutes)

About coastal observations | Map of coastal stations | Coastal observations for QLD | Marine services | Other Formats
Station Details ID: 031011 Name: CAIRNS AERO Lat: -16.87 Lon: 145.75 Height: 2.22 m
Data from the previous 72 hours. | See also: Recent months at Cairns
Date/Time
EST
Temp
°C
Wind Pressure Rain since
9am
mm
Weather Cloud Vis
km
Sea
Height
m
Swell
Dir  Spd
kts
Gust
kts
hPa Trend Height
m
Period
s
Dir
25/06:00am 18.6 SE 10 12 1015.2 R 0.0 - Mostly clear 10 - - - -
25/05:30am 18.8 WSW 4 7 1014.9 - 0.0 - - 10 - - - -
25/05:00am 17.9 WSW 3 4 1014.6 - 0.0 - - 10 - - - -
25/04:30am 18.2 SW 4 6 1014.5 - 0.0 - - 10 - - - -
25/04:00am 19.0 SSE 9 12 1014.4 - 0.0 - - 10 - - - -
25/03:30am 18.6 SW 2 5 1014.4 - 0.0 - - 10 - - - -
25/03:00am 18.6 SSW 2 4 1014.7 R 0.0 - Mostly clear 10 - - - -
25/02:30am 18.7 SSW 1 5 1015.0 - 0.0 - Mostly clear 10 - - - -
25/02:00am 19.1 SE 1 4 1015.1 - 0.0 - Mostly clear 10 - - - -
25/01:30am 18.9 CALM 0 0 1015.2 - 0.0 - Mostly clear 10 - - - -
25/01:00am 19.3 SSE 3 5 1015.3 - 0.0 - Mostly clear 10 - - - -
25/12:30am 19.9 SSE 3 6 1015.4 - 0.0 - Mostly clear 10 - - - -
25/12:00am 18.9 CALM 0 0 1015.6 R 0.0 - Mostly clear 10 - - - -
 
Date/Time
EST
Temp
°C
Wind Pressure Rain since
9am
mm
Weather Cloud Vis
km
Sea
Height
m
Swell
Dir  Spd
kts
Gust
kts
hPa Trend Height
m
Period
s
Dir
24/11:30pm 18.1 CALM 0 0 1015.8 - 0.0 - Mostly clear 10 - - - -
24/11:00pm 18.8 CALM 0 0 1015.9 - 0.0 - Mostly clear 10 - - - -
24/10:30pm 19.0 CALM 0 0 1016.0 - 0.0 - - 10 - - - -
24/10:00pm 19.4 W 2 4 1015.9 - 0.0 - - 10 - - - -
24/09:30pm 19.7 WNW 4 5 1015.7 - 0.0 - - 10 - - - -
24/09:00pm 19.8 WNW 4 5 1015.5 R 0.0 - - 10 - - - -
24/08:30pm 21.1 NW 1 3 1015.3 - 0.0 - - 10 - - - -
24/08:00pm 21.1 W 4 5 1014.9 - 0.0 - - 10 - - - -
24/07:30pm 21.7 CALM 0 0 1014.6 - 0.0 - - 10 - - - -
24/07:00pm 22.0 CALM 0 0 1014.3 - 0.0 - - 10 - - - -
24/06:30pm 22.2 SE 3 5 1014.0 - 0.0 - - 10 - - - -
24/06:00pm 23.3 SE 4 5 1013.6 F 0.0 - - 10 - - - -
24/05:30pm 25.2 S 5 6 1013.4 - 0.0 - - 10 - - - -
24/05:00pm 26.4 SE 9 12 1013.2 - 0.0 - - 10 - - - -
24/04:30pm 27.0 ESE 8 11 1012.9 - 0.0 - - 10 - - - -
24/04:00pm 27.3 ESE 8 10 1012.9 - 0.0 - - 10 - - - -
24/03:30pm 27.8 E 10 14 1013.0 - 0.0 - - 10 - - - -
24/03:00pm 27.6 ESE 12 15 1013.1 F 0.0 - - 10 - - - -
24/02:30pm 27.9 ESE 13 16 1013.4 - 0.0 - - 10 - - - -
24/02:00pm 27.6 ESE 9 14 1013.8 - 0.0 - Mostly clear 10 - - - -
24/01:30pm 27.9 ESE 9 14 1014.3 - 0.0 - Mostly clear 10 - - - -
24/01:00pm 27.8 ESE 13 17 1014.4 - 0.0 - Mostly clear 10 - - - -
24/12:30pm 27.5 SE 13 17 1014.9 - 0.0 - Mostly clear 10 - - - -
24/12:00pm 27.5 SE 11 16 1015.4 R 0.0 - Mostly clear 10 - - - -
24/11:30am 27.1 SE 11 15 1015.7 - 0.0 - Mostly clear 10 - - - -
24/11:00am 26.3 SSE 11 16 1015.9 - 0.0 - Mostly clear 10 - - - -
24/10:30am 25.7 SSE 9 12 1015.9 - 0.0 - Mostly clear 10 - - - -
24/10:00am 25.2 SSE 8 11 1016.1 - 0.0 - Mostly clear 10 - - - -
24/09:30am 24.6 SE 9 11 1016.1 - 0.0 - Mostly clear 10 - - - -
24/09:00am 22.8 SE 11 14 1016.0 R 0.0 - Mostly clear 10 - - - -
24/08:30am 22.0 SE 8 10 1015.8 - 0.0 - Mostly clear 10 - - - -
24/08:00am 20.8 SE 10 12 1015.6 - 0.0 - Mostly clear 10 - - - -
24/07:30am 20.3 SSE 9 14 1015.4 - 0.0 - Mostly clear 10 - - - -
24/07:00am 19.8 SSE 10 14 1015.0 - 0.0 - Mostly clear 10 - - - -
24/06:30am 19.2 SSE 9 11 1014.7 - 0.0 - Mostly clear 10 - - - -
24/06:00am 19.7 SE 7 11 1014.3 R 0.0 - Mostly clear 10 - - - -
24/05:30am 19.2 SSE 7 10 1014.1 - 0.0 - Mostly clear 10 - - - -
24/05:00am 19.7 SE 10 12 1013.9 - 0.0 - Mostly clear 10 - - - -
24/04:30am 19.4 S 3 9 1013.7 - 0.0 - Mostly clear 10 - - - -
24/04:00am 19.2 S 2 6 1013.7 - 0.0 - Mostly clear 10 - - - -
24/03:30am 18.3 NNW 1 4 1013.7 - 0.0 - Mostly clear 10 - - - -
24/03:00am 19.2 W 4 4 1013.8 R 0.0 - Mostly clear 10 - - - -
24/02:30am 19.5 SW 3 5 1014.0 - 0.0 - Mostly clear 10 - - - -
24/02:00am 19.8 WSW 1 4 1014.0 - 0.0 - Mostly clear 10 - - - -
24/01:30am 20.1 SE 8 10 1014.3 - 0.0 - Mostly clear 10 - - - -
24/01:00am 21.5 SSW 1 5 1014.3 - 0.0 - Mostly clear 10 - - - -
24/12:30am 20.7 SSE 5 8 1014.3 - 0.0 - Mostly clear 10 - - - -
24/12:00am 21.3 SSE 6 8 1014.5 R 0.0 - Mostly clear 10 - - - -
 
Date/Time
EST
Temp
°C
Wind Pressure Rain since
9am
mm
Weather Cloud Vis
km
Sea
Height
m
Swell
Dir  Spd
kts
Gust
kts
hPa Trend Height
m
Period
s
Dir
23/11:30pm 21.5 SSE 5 8 1014.5 - 0.0 - Mostly clear 10 - - - -
23/11:00pm 22.5 S 8 12 1014.5 - 0.0 - Mostly clear 10 - - - -
23/10:30pm 22.4 S 5 8 1014.6 - 0.0 - Mostly clear 10 - - - -
23/10:00pm 22.2 S 5 7 1014.6 - 0.0 - Mostly clear 10 - - - -
23/09:30pm 20.7 NNW 4 5 1014.4 - 0.0 - Mostly clear 10 - - - -
23/09:00pm 21.5 SSE 5 5 1014.1 S 0.0 - Mostly clear 10 - - - -
23/08:30pm 22.3 SSE 6 7 1013.9 - 0.0 - Mostly clear 10 - - - -
23/08:00pm 22.1 SSE 4 7 1013.4 - 0.0 - Mostly clear 10 - - - -
23/07:30pm 21.7 SSE 4 6 1013.2 - 0.0 - - 10 - - - -
23/07:00pm 22.1 S 4 5 1013.1 - 0.0 - Mostly clear 10 - - - -
23/06:30pm 23.2 SSE 6 7 1012.8 - 0.0 - Mostly clear 10 - - - -
23/06:00pm 24.0 SSE 6 7 1012.5 F 0.0 - Cloudy 10 - - - -
23/05:30pm 24.8 S 5 9 1012.3 - 0.0 - Mostly clear 10 - - - -
23/05:00pm 25.1 SE 4 6 1012.0 - 0.0 - Partly cloudy 10 - - - -
23/04:30pm 26.6 ESE 7 8 1011.6 - 0.0 - Mostly clear 10 - - - -
23/04:00pm 27.7 E 7 9 1011.5 - 0.0 - Mostly clear 10 - - - -
23/03:30pm 26.9 ENE 6 7 1011.7 - 0.0 - Mostly clear 10 - - - -
23/03:00pm 27.3 E 7 11 1011.9 F 0.0 - Mostly clear 10 - - - -
23/02:30pm 28.0 E 8 10 1012.2 - 0.0 - Mostly clear 10 - - - -
23/02:00pm 27.3 E 9 14 1012.5 - 0.0 - Mostly clear 10 - - - -
23/01:30pm 27.7 ENE 10 14 1012.8 - 0.0 - Mostly clear 10 - - - -
23/01:00pm 27.0 ENE 9 12 1013.4 - 0.0 - Mostly clear 10 - - - -
23/12:30pm 27.9 ESE 7 10 1013.7 - 0.0 - Mostly clear 10 - - - -
23/12:00pm 26.7 SSE 7 12 1014.1 F 0.0 - Partly cloudy 10 - - - -
23/11:30am 25.9 SSE 7 10 1014.4 - 0.0 - Mostly clear 10 - - - -
23/11:00am 26.2 SSE 7 11 1014.9 - 0.0 - Mostly clear 10 - - - -
23/10:30am 25.6 SSE 7 10 1015.3 - 0.0 - Mostly clear 10 - - - -
23/10:00am 24.7 SSE 7 9 1015.6 - 0.0 - Mostly clear 10 - - - -
23/09:30am 24.6 S 5 8 1015.3 - 0.0 - Mostly clear 10 - - - -
23/09:00am 22.7 W 3 5 1015.3 F 0.2 - - 10 - - - -
23/08:30am 21.7 SW 2 6 1015.3 - 0.2 - - 10 - - - -
23/08:00am 19.8 NNW 4 6 1015.1 - 0.2 - - 10 - - - -
23/07:30am 19.1 W 4 5 1014.9 - 0.2 - Mostly clear 10 - - - -
23/07:00am 18.1 W 1 4 1014.7 - 0.2 - Mostly clear 10 - - - -
23/06:30am 17.7 NNW 4 5 1014.4 - 0.2 - Mostly clear 10 - - - -
23/06:00am 17.9 CALM 0 0 1014.1 R 0.2 - Mostly clear 10 - - - -
23/05:30am 18.0 NNW 5 5 1013.8 - 0.2 - Mostly clear 10 - - - -
23/05:00am 18.1 NW 1 3 1013.6 - 0.2 - Mostly clear 10 - - - -
23/04:30am 18.6 SSW 4 6 1013.8 - 0.2 - - 10 - - - -
23/04:00am 19.3 SW 3 5 1013.7 - 0.2 - - 10 - - - -
23/03:30am 19.5 SE 7 9 1013.5 - 0.2 - - 10 - - - -
23/03:00am 19.2 ESE 1 5 1013.5 F 0.2 - - 10 - - - -
23/02:30am 18.8 ENE 1 4 1013.6 - 0.2 - - 10 - - - -
23/02:00am 19.8 E 3 6 1013.8 - 0.2 - - 10 - - - -
23/01:30am 19.3 CALM 0 3 1014.3 - 0.2 - - 10 - - - -
23/01:00am 20.0 WSW 1 4 1014.6 - 0.2 - - 10 - - - -
23/12:30am 21.3 SSW 5 8 1014.7 - 0.2 - - 10 - - - -
23/12:00am 21.9 S 6 9 1014.7 R 0.2 - - 10 - - - -
 
Date/Time
EST
Temp
°C
Wind Pressure Rain since
9am
mm
Weather Cloud Vis
km
Sea
Height
m
Swell
Dir  Spd
kts
Gust
kts
hPa Trend Height
m
Period
s
Dir
22/11:30pm 21.7 S 8 14 1014.7 - 0.2 - - 10 - - - -
22/11:00pm 21.5 SSE 8 11 1014.8 - 0.2 - - 10 - - - -
22/10:30pm 21.6 SSE 7 10 1014.7 - 0.2 - - 10 - - - -
22/10:00pm 21.9 S 7 11 1014.5 - 0.2 - - 10 - - - -
22/09:30pm 22.0 S 7 11 1014.3 - 0.2 - - 10 - - - -
22/09:00pm 22.4 S 7 10 1014.1 F 0.2 - - 10 - - - -
22/08:30pm 22.3 S 7 11 1014.0 - 0.2 - - 10 - - - -
22/08:00pm 22.4 S 6 10 1014.1 - 0.2 - - 10 - - - -
22/07:30pm 23.0 SSE 7 10 1014.0 - 0.2 - Mostly clear 10 - - - -
22/07:00pm 22.6 SSE 6 9 1013.9 - 0.2 - Mostly clear 10 - - - -
22/06:30pm 22.9 S 6 7 1013.6 - 0.2 - Mostly clear 10 - - - -
22/06:00pm 23.1 SE 7 8 1013.3 F 0.2 - Mostly clear 10 - - - -
22/05:30pm 24.4 SSE 5 7 1013.2 - 0.2 - Mostly clear 10 - - - -
22/05:00pm 25.6 SE 10 13 1013.0 - 0.2 - Mostly clear 10 - - - -
22/04:30pm 26.5 SE 9 13 1013.1 - 0.2 - Mostly clear 10 - - - -
22/04:00pm 27.0 SE 9 11 1012.9 - 0.2 - Mostly clear 10 - - - -
22/03:30pm 27.1 SE 10 14 1013.1 - 0.2 - Mostly clear 10 - - - -
22/03:00pm 27.2 SE 11 14 1013.3 S 0.2 - Mostly clear 10 - - - -
22/02:30pm 27.2 SE 10 14 1013.5 - 0.2 - Mostly clear 10 - - - -
22/02:00pm 27.3 SE 10 14 1013.8 - 0.2 - Mostly clear 10 - - - -
22/01:30pm 27.1 SE 10 14 1014.3 - 0.2 - Mostly clear 10 - - - -
22/01:00pm 27.1 SE 9 14 1014.7 - 0.2 - Mostly clear 10 - - - -
22/12:30pm 27.0 SE 11 14 1015.0 - 0.2 - Mostly clear 10 - - - -
22/12:00pm 27.1 SE 10 13 1015.4 F 0.2 - Mostly clear 10 - - - -
22/11:30am 26.7 SE 11 15 1015.8 - 0.2 - Mostly clear 10 - - - -
22/11:00am 26.5 SSE 9 14 1016.1 - 0.2 - Mostly clear 10 - - - -
22/10:30am 25.7 SSE 9 14 1016.3 - 0.0 - Mostly clear 10 - - - -
22/10:00am 25.4 SSE 10 16 1016.7 - 0.0 - Mostly clear 10 - - - -
22/09:30am 24.8 SSE 9 13 1016.7 - 0.0 - Mostly clear 10 - - - -
22/09:00am 23.5 SSE 9 14 1016.5 S 2.8 - Mostly clear 10 - - - -
22/08:30am 23.5 SSE 8 12 1016.3 - 2.8 - Mostly clear 10 - - - -
22/08:00am 22.6 S 9 15 1016.0 - 2.8 - Mostly clear 10 - - - -
22/07:30am 22.6 S 9 13 1015.6 - 2.8 - Mostly clear 10 - - - -
22/07:00am 22.0 S 9 15 1015.4 - 2.8 - Mostly clear 10 - - - -
22/06:30am 21.9 S 8 14 1015.3 - 2.8 - Mostly clear 10 - - - -

Other Formats:

Comma delimited format used in spreadsheet applications
http://www.bom.gov.au/fwo/IDQ60701/IDQ60701.94287.axf

JavaScript Object Notation format (JSON) in row-major order
http://www.bom.gov.au/fwo/IDQ60701/IDQ60701.94287.json